sensor_id;sensor_type;location;lat;lon;timestamp;pressure;altitude;pressure_sealevel;temperature;humidity
55733;BME280;41637;52.364;9.910;2022-07-29T00:01:14;101157.80;;;16.09;52.07
55733;BME280;41637;52.364;9.910;2022-07-29T00:03:45;101155.55;;;16.11;52.15
55733;BME280;41637;52.364;9.910;2022-07-29T00:06:13;101149.66;;;16.13;52.05
55733;BME280;41637;52.364;9.910;2022-07-29T00:08:40;101148.48;;;16.14;52.15
55733;BME280;41637;52.364;9.910;2022-07-29T00:11:10;101145.39;;;16.15;52.31
55733;BME280;41637;52.364;9.910;2022-07-29T00:13:37;101141.36;;;16.16;52.24
55733;BME280;41637;52.364;9.910;2022-07-29T00:16:07;101137.09;;;16.17;52.31
55733;BME280;41637;52.364;9.910;2022-07-29T00:18:35;101130.05;;;16.18;52.34
55733;BME280;41637;52.364;9.910;2022-07-29T00:21:02;101133.22;;;16.20;52.28
55733;BME280;41637;52.364;9.910;2022-07-29T00:23:37;101135.85;;;16.21;52.34
55733;BME280;41637;52.364;9.910;2022-07-29T00:26:10;101135.65;;;16.23;52.58
55733;BME280;41637;52.364;9.910;2022-07-29T00:28:37;101132.98;;;16.23;52.46
55733;BME280;41637;52.364;9.910;2022-07-29T00:31:10;101126.55;;;16.23;52.39
55733;BME280;41637;52.364;9.910;2022-07-29T00:33:37;101121.37;;;16.23;52.37
55733;BME280;41637;52.364;9.910;2022-07-29T00:36:08;101122.56;;;16.23;52.46
55733;BME280;41637;52.364;9.910;2022-07-29T00:38:35;101124.87;;;16.23;52.35
55733;BME280;41637;52.364;9.910;2022-07-29T00:41:03;101120.17;;;16.24;52.32
55733;BME280;41637;52.364;9.910;2022-07-29T00:43:37;101117.86;;;16.25;52.35
55733;BME280;41637;52.364;9.910;2022-07-29T00:46:11;101114.41;;;16.25;52.43
55733;BME280;41637;52.364;9.910;2022-07-29T00:48:38;101110.38;;;16.26;52.38
55733;BME280;41637;52.364;9.910;2022-07-29T00:51:10;101112.60;;;16.27;52.51
55733;BME280;41637;52.364;9.910;2022-07-29T00:53:37;101109.77;;;16.27;52.40
55733;BME280;41637;52.364;9.910;2022-07-29T00:56:08;101107.61;;;16.27;52.55
55733;BME280;41637;52.364;9.910;2022-07-29T00:58:36;101112.89;;;16.26;52.62
55733;BME280;41637;52.364;9.910;2022-07-29T01:01:03;101108.17;;;16.25;52.62
55733;BME280;41637;52.364;9.910;2022-07-29T01:03:37;101110.30;;;16.26;52.59
55733;BME280;41637;52.364;9.910;2022-07-29T01:06:10;101106.17;;;16.26;52.60
55733;BME280;41637;52.364;9.910;2022-07-29T01:08:38;101103.30;;;16.24;52.65
55733;BME280;41637;52.364;9.910;2022-07-29T01:11:08;101098.93;;;16.24;52.72
55733;BME280;41637;52.364;9.910;2022-07-29T01:13:36;101092.54;;;16.22;52.75
55733;BME280;41637;52.364;9.910;2022-07-29T01:16:09;101088.37;;;16.20;52.84
55733;BME280;41637;52.364;9.910;2022-07-29T01:18:43;101085.65;;;16.19;53.01
55733;BME280;41637;52.364;9.910;2022-07-29T01:24:55;101083.30;;;16.17;53.04
55733;BME280;41637;52.364;9.910;2022-07-29T01:29:49;101078.02;;;16.15;53.02
55733;BME280;41637;52.364;9.910;2022-07-29T01:32:26;101076.00;;;16.12;53.03
55733;BME280;41637;52.364;9.910;2022-07-29T01:40:35;101072.23;;;16.02;53.39
55733;BME280;41637;52.364;9.910;2022-07-29T01:43:10;101067.11;;;15.99;53.61
55733;BME280;41637;52.364;9.910;2022-07-29T01:45:43;101065.90;;;15.96;53.71
55733;BME280;41637;52.364;9.910;2022-07-29T01:51:00;101060.02;;;15.93;53.70
55733;BME280;41637;52.364;9.910;2022-07-29T01:53:34;101059.92;;;15.89;53.85
55733;BME280;41637;52.364;9.910;2022-07-29T01:56:09;101058.05;;;15.86;53.84
55733;BME280;41637;52.364;9.910;2022-07-29T01:58:39;101059.08;;;15.82;53.98
55733;BME280;41637;52.364;9.910;2022-07-29T02:01:10;101056.60;;;15.79;54.10
55733;BME280;41637;52.364;9.910;2022-07-29T02:03:43;101057.00;;;15.76;54.20
55733;BME280;41637;52.364;9.910;2022-07-29T02:06:15;101053.86;;;15.73;54.38
55733;BME280;41637;52.364;9.910;2022-07-29T02:08:44;101053.58;;;15.70;54.51
55733;BME280;41637;52.364;9.910;2022-07-29T02:11:12;101053.30;;;15.66;54.51
55733;BME280;41637;52.364;9.910;2022-07-29T02:13:40;101049.50;;;15.64;54.55
55733;BME280;41637;52.364;9.910;2022-07-29T02:16:09;101048.93;;;15.60;54.65
55733;BME280;41637;52.364;9.910;2022-07-29T02:18:39;101049.11;;;15.57;54.82
55733;BME280;41637;52.364;9.910;2022-07-29T02:21:11;101050.38;;;15.54;54.94
55733;BME280;41637;52.364;9.910;2022-07-29T02:23:41;101046.20;;;15.51;55.06
55733;BME280;41637;52.364;9.910;2022-07-29T02:26:18;101042.52;;;15.46;55.22
55733;BME280;41637;52.364;9.910;2022-07-29T02:28:47;101039.13;;;15.42;55.32
55733;BME280;41637;52.364;9.910;2022-07-29T02:31:16;101040.75;;;15.38;55.27
55733;BME280;41637;52.364;9.910;2022-07-29T02:33:45;101034.72;;;15.33;55.56
55733;BME280;41637;52.364;9.910;2022-07-29T02:36:13;101038.34;;;15.30;55.50
55733;BME280;41637;52.364;9.910;2022-07-29T02:38:42;101034.12;;;15.25;55.59
55733;BME280;41637;52.364;9.910;2022-07-29T02:41:23;101035.33;;;15.22;55.69
55733;BME280;41637;52.364;9.910;2022-07-29T02:44:05;101036.91;;;15.19;56.05
55733;BME280;41637;52.364;9.910;2022-07-29T02:46:34;101034.60;;;15.18;56.13
55733;BME280;41637;52.364;9.910;2022-07-29T02:49:18;101033.89;;;15.16;56.04
55733;BME280;41637;52.364;9.910;2022-07-29T02:51:54;101033.48;;;15.15;56.42
55733;BME280;41637;52.364;9.910;2022-07-29T02:57:14;101029.71;;;15.11;56.50
55733;BME280;41637;52.364;9.910;2022-07-29T02:59:49;101029.61;;;15.14;56.76
55733;BME280;41637;52.364;9.910;2022-07-29T03:02:18;101030.92;;;15.14;56.63
55733;BME280;41637;52.364;9.910;2022-07-29T03:04:46;101028.38;;;15.15;56.84
55733;BME280;41637;52.364;9.910;2022-07-29T03:07:18;101028.91;;;15.15;56.82
55733;BME280;41637;52.364;9.910;2022-07-29T03:09:46;101026.54;;;15.15;56.87
55733;BME280;41637;52.364;9.910;2022-07-29T03:12:14;101024.10;;;15.15;56.98
55733;BME280;41637;52.364;9.910;2022-07-29T03:14:42;101020.44;;;15.13;56.95
55733;BME280;41637;52.364;9.910;2022-07-29T03:17:10;101018.77;;;15.11;57.19
55733;BME280;41637;52.364;9.910;2022-07-29T03:19:38;101021.36;;;15.09;57.06
55733;BME280;41637;52.364;9.910;2022-07-29T03:22:05;101018.70;;;15.09;57.40
55733;BME280;41637;52.364;9.910;2022-07-29T03:24:34;101018.47;;;15.08;57.30
55733;BME280;41637;52.364;9.910;2022-07-29T03:27:02;101017.94;;;15.07;57.62
55733;BME280;41637;52.364;9.910;2022-07-29T03:29:30;101018.33;;;15.05;57.51
55733;BME280;41637;52.364;9.910;2022-07-29T03:32:03;101016.73;;;15.04;57.42
55733;BME280;41637;52.364;9.910;2022-07-29T03:34:35;101016.77;;;15.03;57.58
55733;BME280;41637;52.364;9.910;2022-07-29T03:37:03;101015.77;;;15.02;57.77
55733;BME280;41637;52.364;9.910;2022-07-29T03:39:35;101018.57;;;15.01;58.16
55733;BME280;41637;52.364;9.910;2022-07-29T03:42:05;101015.89;;;14.99;58.16
55733;BME280;41637;52.364;9.910;2022-07-29T03:44:34;101013.66;;;14.99;58.11
55733;BME280;41637;52.364;9.910;2022-07-29T03:47:01;101015.22;;;14.99;58.37
55733;BME280;41637;52.364;9.910;2022-07-29T03:49:29;101016.66;;;14.99;58.23
55733;BME280;41637;52.364;9.910;2022-07-29T03:51:58;101014.30;;;14.98;58.26
55733;BME280;41637;52.364;9.910;2022-07-29T03:54:25;101017.27;;;14.98;58.53
55733;BME280;41637;52.364;9.910;2022-07-29T03:56:53;101018.63;;;14.97;58.61
55733;BME280;41637;52.364;9.910;2022-07-29T03:59:21;101021.32;;;14.96;58.48
55733;BME280;41637;52.364;9.910;2022-07-29T04:01:49;101019.76;;;14.96;58.72
55733;BME280;41637;52.364;9.910;2022-07-29T04:04:17;101020.61;;;14.99;58.73
55733;BME280;41637;52.364;9.910;2022-07-29T04:06:45;101025.34;;;15.01;58.85
55733;BME280;41637;52.364;9.910;2022-07-29T04:09:14;101019.14;;;15.02;58.85
55733;BME280;41637;52.364;9.910;2022-07-29T04:11:41;101021.52;;;15.04;58.73
55733;BME280;41637;52.364;9.910;2022-07-29T04:14:29;101025.09;;;15.08;58.73
55733;BME280;41637;52.364;9.910;2022-07-29T04:16:59;101021.08;;;15.09;58.78
55733;BME280;41637;52.364;9.910;2022-07-29T04:19:26;101022.86;;;15.12;58.98
55733;BME280;41637;52.364;9.910;2022-07-29T04:21:53;101019.38;;;15.14;58.81
55733;BME280;41637;52.364;9.910;2022-07-29T04:24:20;101015.42;;;15.14;58.97
55733;BME280;41637;52.364;9.910;2022-07-29T04:26:48;101015.98;;;15.17;58.79
55733;BME280;41637;52.364;9.910;2022-07-29T04:29:15;101018.00;;;15.19;58.92
55733;BME280;41637;52.364;9.910;2022-07-29T04:31:43;101017.94;;;15.22;58.94
55733;BME280;41637;52.364;9.910;2022-07-29T04:34:11;101019.30;;;15.24;58.90
55733;BME280;41637;52.364;9.910;2022-07-29T04:36:39;101019.73;;;15.26;58.63
55733;BME280;41637;52.364;9.910;2022-07-29T04:39:06;101023.98;;;15.29;58.94
55733;BME280;41637;52.364;9.910;2022-07-29T04:41:33;101022.46;;;15.30;58.86
55733;BME280;41637;52.364;9.910;2022-07-29T04:44:01;101026.55;;;15.33;58.85
55733;BME280;41637;52.364;9.910;2022-07-29T04:46:35;101025.64;;;15.33;58.98
55733;BME280;41637;52.364;9.910;2022-07-29T04:49:02;101026.30;;;15.35;58.83
55733;BME280;41637;52.364;9.910;2022-07-29T04:51:30;101028.29;;;15.37;58.86
55733;BME280;41637;52.364;9.910;2022-07-29T04:53:58;101033.31;;;15.39;58.77
55733;BME280;41637;52.364;9.910;2022-07-29T04:56:25;101028.77;;;15.41;58.92
55733;BME280;41637;52.364;9.910;2022-07-29T04:58:52;101024.20;;;15.43;58.91
55733;BME280;41637;52.364;9.910;2022-07-29T05:01:20;101022.53;;;15.46;58.93
55733;BME280;41637;52.364;9.910;2022-07-29T05:03:47;101016.02;;;15.50;58.87
55733;BME280;41637;52.364;9.910;2022-07-29T05:06:14;101017.06;;;15.56;58.84
55733;BME280;41637;52.364;9.910;2022-07-29T05:08:42;101023.42;;;15.64;58.64
55733;BME280;41637;52.364;9.910;2022-07-29T05:11:24;101020.65;;;15.69;58.66
55733;BME280;41637;52.364;9.910;2022-07-29T05:13:56;101022.85;;;15.76;58.48
55733;BME280;41637;52.364;9.910;2022-07-29T05:16:24;101020.66;;;15.80;58.40
55733;BME280;41637;52.364;9.910;2022-07-29T05:18:51;101020.94;;;15.89;58.56
55733;BME280;41637;52.364;9.910;2022-07-29T05:21:19;101026.31;;;15.98;58.24
55733;BME280;41637;52.364;9.910;2022-07-29T05:23:46;101025.63;;;16.06;58.10
55733;BME280;41637;52.364;9.910;2022-07-29T05:26:14;101028.98;;;16.14;58.03
55733;BME280;41637;52.364;9.910;2022-07-29T05:28:41;101035.20;;;16.22;57.84
55733;BME280;41637;52.364;9.910;2022-07-29T05:31:11;101035.64;;;16.29;57.70
55733;BME280;41637;52.364;9.910;2022-07-29T05:33:41;101027.81;;;16.38;57.70
55733;BME280;41637;52.364;9.910;2022-07-29T05:36:11;101024.94;;;16.45;57.40
55733;BME280;41637;52.364;9.910;2022-07-29T05:38:38;101025.39;;;16.51;57.31
55733;BME280;41637;52.364;9.910;2022-07-29T05:41:11;101022.47;;;16.62;57.37
55733;BME280;41637;52.364;9.910;2022-07-29T05:43:39;101020.92;;;16.72;57.16
55733;BME280;41637;52.364;9.910;2022-07-29T05:46:12;101021.93;;;16.83;57.04
55733;BME280;41637;52.364;9.910;2022-07-29T05:48:40;101023.20;;;16.94;56.60
55733;BME280;41637;52.364;9.910;2022-07-29T05:51:11;101016.63;;;17.01;56.50
55733;BME280;41637;52.364;9.910;2022-07-29T05:53:38;101020.85;;;17.09;56.26
55733;BME280;41637;52.364;9.910;2022-07-29T05:56:11;101022.29;;;17.16;56.17
55733;BME280;41637;52.364;9.910;2022-07-29T05:58:38;101020.48;;;17.24;55.96
55733;BME280;41637;52.364;9.910;2022-07-29T06:01:11;101021.00;;;17.33;55.97
55733;BME280;41637;52.364;9.910;2022-07-29T06:03:38;101020.87;;;17.45;55.80
55733;BME280;41637;52.364;9.910;2022-07-29T06:06:10;101020.28;;;17.58;55.82
55733;BME280;41637;52.364;9.910;2022-07-29T06:08:38;101021.74;;;17.71;54.96
55733;BME280;41637;52.364;9.910;2022-07-29T06:11:11;101022.56;;;17.80;54.61
55733;BME280;41637;52.364;9.910;2022-07-29T06:13:38;101020.16;;;17.86;54.62
55733;BME280;41637;52.364;9.910;2022-07-29T06:16:11;101016.73;;;17.89;54.69
55733;BME280;41637;52.364;9.910;2022-07-29T06:18:51;101013.42;;;17.90;54.46
55733;BME280;41637;52.364;9.910;2022-07-29T06:21:19;101014.59;;;17.92;54.44
55733;BME280;41637;52.364;9.910;2022-07-29T06:23:46;101011.64;;;17.97;54.40
55733;BME280;41637;52.364;9.910;2022-07-29T06:26:13;101006.35;;;18.03;54.45
55733;BME280;41637;52.364;9.910;2022-07-29T06:28:41;101011.14;;;18.11;54.44
55733;BME280;41637;52.364;9.910;2022-07-29T06:31:11;101012.73;;;18.21;54.24
55733;BME280;41637;52.364;9.910;2022-07-29T06:33:38;101015.55;;;18.34;53.90
55733;BME280;41637;52.364;9.910;2022-07-29T06:36:11;101021.89;;;18.47;53.78
55733;BME280;41637;52.364;9.910;2022-07-29T06:38:40;101015.70;;;18.61;53.46
55733;BME280;41637;52.364;9.910;2022-07-29T06:41:17;101013.02;;;18.74;53.02
55733;BME280;41637;52.364;9.910;2022-07-29T06:43:45;101008.95;;;18.87;52.77
55733;BME280;41637;52.364;9.910;2022-07-29T06:46:20;101004.53;;;19.03;52.73
55733;BME280;41637;52.364;9.910;2022-07-29T06:48:48;100995.70;;;19.22;52.13
55733;BME280;41637;52.364;9.910;2022-07-29T06:51:15;101001.02;;;19.42;51.93
55733;BME280;41637;52.364;9.910;2022-07-29T06:53:50;100998.09;;;19.61;51.02
55733;BME280;41637;52.364;9.910;2022-07-29T06:56:32;100996.25;;;19.76;50.91
55733;BME280;41637;52.364;9.910;2022-07-29T06:59:06;100996.09;;;19.94;50.82
55733;BME280;41637;52.364;9.910;2022-07-29T07:01:45;100991.52;;;20.07;50.54
55733;BME280;41637;52.364;9.910;2022-07-29T07:04:12;100993.05;;;20.17;49.74
55733;BME280;41637;52.364;9.910;2022-07-29T07:06:40;100994.77;;;20.25;49.65
55733;BME280;41637;52.364;9.910;2022-07-29T07:09:07;101003.98;;;20.34;49.28
55733;BME280;41637;52.364;9.910;2022-07-29T07:11:34;101013.23;;;20.43;48.90
55733;BME280;41637;52.364;9.910;2022-07-29T07:14:01;101015.39;;;20.47;48.73
55733;BME280;41637;52.364;9.910;2022-07-29T07:16:31;101014.46;;;20.51;48.69
55733;BME280;41637;52.364;9.910;2022-07-29T07:21:36;101012.30;;;20.49;48.16
55733;BME280;41637;52.364;9.910;2022-07-29T07:24:03;101016.61;;;20.53;48.43
55733;BME280;41637;52.364;9.910;2022-07-29T07:26:33;101019.94;;;20.60;48.24
55733;BME280;41637;52.364;9.910;2022-07-29T07:29:01;101018.27;;;20.60;48.08
55733;BME280;41637;52.364;9.910;2022-07-29T07:31:29;101009.86;;;20.60;47.68
55733;BME280;41637;52.364;9.910;2022-07-29T07:33:56;101007.45;;;20.62;47.90
55733;BME280;41637;52.364;9.910;2022-07-29T07:36:24;101004.11;;;20.71;48.04
55733;BME280;41637;52.364;9.910;2022-07-29T07:38:51;100997.46;;;20.76;47.76
55733;BME280;41637;52.364;9.910;2022-07-29T07:41:19;100995.32;;;20.85;47.63
55733;BME280;41637;52.364;9.910;2022-07-29T07:43:46;100993.18;;;20.88;47.56
55733;BME280;41637;52.364;9.910;2022-07-29T07:46:13;100994.04;;;20.93;47.47
55733;BME280;41637;52.364;9.910;2022-07-29T07:48:41;100997.44;;;21.00;47.50
55733;BME280;41637;52.364;9.910;2022-07-29T07:51:15;100995.52;;;21.05;47.61
55733;BME280;41637;52.364;9.910;2022-07-29T07:53:42;100994.01;;;21.12;47.24
55733;BME280;41637;52.364;9.910;2022-07-29T07:56:15;100991.55;;;21.18;47.13
55733;BME280;41637;52.364;9.910;2022-07-29T07:58:41;100989.50;;;21.22;46.68
55733;BME280;41637;52.364;9.910;2022-07-29T08:01:11;100997.98;;;21.21;46.63
55733;BME280;41637;52.364;9.910;2022-07-29T08:03:38;100999.73;;;21.23;46.63
55733;BME280;41637;52.364;9.910;2022-07-29T08:06:13;100999.89;;;21.25;46.48
55733;BME280;41637;52.364;9.910;2022-07-29T08:08:40;101004.34;;;21.29;46.67
55733;BME280;41637;52.364;9.910;2022-07-29T08:11:13;101006.27;;;21.36;46.86
55733;BME280;41637;52.364;9.910;2022-07-29T08:13:41;101009.95;;;21.39;46.86
55733;BME280;41637;52.364;9.910;2022-07-29T08:16:14;101008.59;;;21.45;46.79
55733;BME280;41637;52.364;9.910;2022-07-29T08:18:44;101010.05;;;21.51;46.66
55733;BME280;41637;52.364;9.910;2022-07-29T08:21:21;101006.63;;;21.55;46.15
55733;BME280;41637;52.364;9.910;2022-07-29T08:36:57;100994.27;;;21.83;45.79
55733;BME280;41637;52.364;9.910;2022-07-29T08:39:24;100996.68;;;21.87;45.89
55733;BME280;41637;52.364;9.910;2022-07-29T08:41:51;100996.02;;;21.90;45.77
55733;BME280;41637;52.364;9.910;2022-07-29T08:44:23;101000.27;;;21.88;45.37
55733;BME280;41637;52.364;9.910;2022-07-29T08:46:56;101000.22;;;21.88;45.36
55733;BME280;41637;52.364;9.910;2022-07-29T08:49:23;101001.30;;;21.92;45.43
55733;BME280;41637;52.364;9.910;2022-07-29T08:51:51;101002.47;;;21.99;45.69
55733;BME280;41637;52.364;9.910;2022-07-29T08:54:21;101000.85;;;22.06;45.57
55733;BME280;41637;52.364;9.910;2022-07-29T08:56:50;100999.98;;;22.12;45.54
55733;BME280;41637;52.364;9.910;2022-07-29T08:59:22;101005.44;;;22.18;45.22
55733;BME280;41637;52.364;9.910;2022-07-29T09:01:52;101005.72;;;22.19;45.41
55733;BME280;41637;52.364;9.910;2022-07-29T09:04:20;101006.78;;;22.26;45.25
55733;BME280;41637;52.364;9.910;2022-07-29T09:06:51;101005.42;;;22.35;45.06
55733;BME280;41637;52.364;9.910;2022-07-29T09:09:18;101003.89;;;22.41;44.33
55733;BME280;41637;52.364;9.910;2022-07-29T09:11:45;101003.06;;;22.48;44.19
55733;BME280;41637;52.364;9.910;2022-07-29T09:14:13;101005.35;;;22.58;44.31
55733;BME280;41637;52.364;9.910;2022-07-29T09:19:20;101003.35;;;22.96;43.70
55733;BME280;41637;52.364;9.910;2022-07-29T09:21:48;101007.11;;;23.22;43.43
55733;BME280;41637;52.364;9.910;2022-07-29T09:27:10;100998.58;;;23.82;42.22
55733;BME280;41637;52.364;9.910;2022-07-29T09:29:37;100996.04;;;24.05;42.09
55733;BME280;41637;52.364;9.910;2022-07-29T09:32:08;100998.05;;;24.25;41.88
55733;BME280;41637;52.364;9.910;2022-07-29T09:34:36;100995.73;;;24.45;41.39
55733;BME280;41637;52.364;9.910;2022-07-29T09:37:04;100996.38;;;24.58;41.01
55733;BME280;41637;52.364;9.910;2022-07-29T09:39:40;100986.48;;;24.63;40.06
55733;BME280;41637;52.364;9.910;2022-07-29T09:44:50;100977.95;;;24.61;39.90
55733;BME280;41637;52.364;9.910;2022-07-29T09:47:47;100975.11;;;24.68;40.39
55733;BME280;41637;52.364;9.910;2022-07-29T09:50:50;100973.02;;;24.82;40.70
55733;BME280;41637;52.364;9.910;2022-07-29T09:53:46;100967.70;;;24.93;40.21
55733;BME280;41637;52.364;9.910;2022-07-29T09:56:19;100963.88;;;25.00;40.13
55733;BME280;41637;52.364;9.910;2022-07-29T09:58:46;100965.52;;;25.02;40.40
55733;BME280;41637;52.364;9.910;2022-07-29T10:01:15;100965.21;;;25.04;40.16
55733;BME280;41637;52.364;9.910;2022-07-29T10:03:52;100961.46;;;25.05;40.12
55733;BME280;41637;52.364;9.910;2022-07-29T10:06:19;100959.31;;;25.09;40.33
55733;BME280;41637;52.364;9.910;2022-07-29T10:08:47;100957.09;;;25.12;40.16
55733;BME280;41637;52.364;9.910;2022-07-29T10:11:17;100958.37;;;25.16;40.08
55733;BME280;41637;52.364;9.910;2022-07-29T10:13:47;100954.88;;;25.16;39.87
55733;BME280;41637;52.364;9.910;2022-07-29T10:16:20;100954.98;;;25.14;40.19
55733;BME280;41637;52.364;9.910;2022-07-29T10:18:47;100953.52;;;25.12;39.59
55733;BME280;41637;52.364;9.910;2022-07-29T10:21:16;100951.50;;;25.12;39.74
55733;BME280;41637;52.364;9.910;2022-07-29T10:24:01;100950.15;;;25.15;39.99
55733;BME280;41637;52.364;9.910;2022-07-29T10:26:29;100939.77;;;25.22;40.05
55733;BME280;41637;52.364;9.910;2022-07-29T10:28:56;100944.93;;;25.39;39.68
55733;BME280;41637;52.364;9.910;2022-07-29T10:31:29;100942.23;;;25.51;39.19
55733;BME280;41637;52.364;9.910;2022-07-29T10:36:46;100941.52;;;25.82;38.72
55733;BME280;41637;52.364;9.910;2022-07-29T10:42:25;100947.45;;;26.26;38.50
55733;BME280;41637;52.364;9.910;2022-07-29T10:45:01;100944.63;;;26.34;38.11
55733;BME280;41637;52.364;9.910;2022-07-29T10:47:32;100946.56;;;26.46;38.31
55733;BME280;41637;52.364;9.910;2022-07-29T10:50:03;100948.77;;;26.48;37.26
55733;BME280;41637;52.364;9.910;2022-07-29T10:52:53;100945.14;;;26.44;37.24
55733;BME280;41637;52.364;9.910;2022-07-29T10:55:35;100939.97;;;26.44;37.96
55733;BME280;41637;52.364;9.910;2022-07-29T11:00:48;100936.86;;;26.47;37.54
55733;BME280;41637;52.364;9.910;2022-07-29T11:06:15;100937.63;;;26.43;37.65
55733;BME280;41637;52.364;9.910;2022-07-29T11:08:43;100934.02;;;26.38;37.86
55733;BME280;41637;52.364;9.910;2022-07-29T11:13:55;100932.42;;;26.41;37.68
55733;BME280;41637;52.364;9.910;2022-07-29T11:16:22;100932.79;;;26.41;37.62
55733;BME280;41637;52.364;9.910;2022-07-29T11:21:46;100932.90;;;26.40;37.93
55733;BME280;41637;52.364;9.910;2022-07-29T11:24:28;100935.92;;;26.37;37.95
55733;BME280;41637;52.364;9.910;2022-07-29T11:27:14;100935.37;;;26.36;38.46
55733;BME280;41637;52.364;9.910;2022-07-29T11:29:56;100926.40;;;26.30;38.61
55733;BME280;41637;52.364;9.910;2022-07-29T11:32:36;100931.13;;;26.35;38.76
55733;BME280;41637;52.364;9.910;2022-07-29T11:35:24;100923.95;;;26.32;38.74
55733;BME280;41637;52.364;9.910;2022-07-29T11:38:24;100926.79;;;26.31;38.44
55733;BME280;41637;52.364;9.910;2022-07-29T11:43:50;100928.36;;;26.29;38.06
55733;BME280;41637;52.364;9.910;2022-07-29T11:49:12;100916.30;;;26.14;38.33
55733;BME280;41637;52.364;9.910;2022-07-29T11:51:41;100922.02;;;26.21;38.75
55733;BME280;41637;52.364;9.910;2022-07-29T11:54:17;100921.80;;;26.21;38.25
55733;BME280;41637;52.364;9.910;2022-07-29T11:56:53;100920.63;;;26.31;38.42
55733;BME280;41637;52.364;9.910;2022-07-29T11:59:21;100920.23;;;26.40;38.36
55733;BME280;41637;52.364;9.910;2022-07-29T12:01:59;100916.24;;;26.50;38.52
55733;BME280;41637;52.364;9.910;2022-07-29T12:04:56;100916.35;;;26.63;38.00
55733;BME280;41637;52.364;9.910;2022-07-29T12:07:30;100915.38;;;26.71;37.48
55733;BME280;41637;52.364;9.910;2022-07-29T12:23:36;100902.23;;;27.61;35.29
55733;BME280;41637;52.364;9.910;2022-07-29T12:28:43;100898.22;;;28.00;33.05
55733;BME280;41637;52.364;9.910;2022-07-29T12:31:22;100900.15;;;28.30;32.72
55733;BME280;41637;52.364;9.910;2022-07-29T12:33:53;100902.92;;;28.58;32.24
55733;BME280;41637;52.364;9.910;2022-07-29T12:38:57;100901.65;;;29.24;31.52
55733;BME280;41637;52.364;9.910;2022-07-29T12:41:24;100896.80;;;29.53;30.68
55733;BME280;41637;52.364;9.910;2022-07-29T12:51:42;100889.26;;;31.65;27.84
55733;BME280;41637;52.364;9.910;2022-07-29T12:54:12;100883.11;;;32.13;27.22
55733;BME280;41637;52.364;9.910;2022-07-29T12:56:41;100880.36;;;32.53;26.65
55733;BME280;41637;52.364;9.910;2022-07-29T12:59:18;100879.65;;;32.97;25.99
55733;BME280;41637;52.364;9.910;2022-07-29T13:01:47;100885.37;;;33.44;26.00
55733;BME280;41637;52.364;9.910;2022-07-29T13:04:30;100883.98;;;33.78;25.43
55733;BME280;41637;52.364;9.910;2022-07-29T13:07:00;100883.73;;;34.52;24.19
55733;BME280;41637;52.364;9.910;2022-07-29T13:09:41;100880.20;;;35.45;23.76
55733;BME280;41637;52.364;9.910;2022-07-29T13:12:10;100881.66;;;35.73;23.26
55733;BME280;41637;52.364;9.910;2022-07-29T13:14:42;100878.14;;;36.36;22.82
55733;BME280;41637;52.364;9.910;2022-07-29T13:17:13;100872.77;;;37.31;21.37
55733;BME280;41637;52.364;9.910;2022-07-29T13:19:48;100869.40;;;38.32;20.77
55733;BME280;41637;52.364;9.910;2022-07-29T13:22:21;100870.27;;;38.95;19.54
55733;BME280;41637;52.364;9.910;2022-07-29T13:27:18;100868.17;;;38.93;19.25
55733;BME280;41637;52.364;9.910;2022-07-29T13:29:45;100862.40;;;38.79;19.16
55733;BME280;41637;52.364;9.910;2022-07-29T13:32:13;100865.81;;;38.76;19.54
55733;BME280;41637;52.364;9.910;2022-07-29T13:34:39;100860.15;;;38.89;19.20
55733;BME280;41637;52.364;9.910;2022-07-29T13:37:07;100861.06;;;39.13;19.29
55733;BME280;41637;52.364;9.910;2022-07-29T13:39:34;100857.54;;;39.36;18.64
55733;BME280;41637;52.364;9.910;2022-07-29T13:42:01;100847.23;;;39.88;18.44
55733;BME280;41637;52.364;9.910;2022-07-29T13:44:31;100841.32;;;40.36;18.21
55733;BME280;41637;52.364;9.910;2022-07-29T13:46:57;100843.48;;;40.42;17.43
55733;BME280;41637;52.364;9.910;2022-07-29T13:49:25;100839.52;;;40.12;17.42
55733;BME280;41637;52.364;9.910;2022-07-29T13:51:53;100839.08;;;39.67;17.49
55733;BME280;41637;52.364;9.910;2022-07-29T13:54:19;100834.56;;;39.53;17.84
55733;BME280;41637;52.364;9.910;2022-07-29T13:56:46;100835.26;;;39.40;17.94
55733;BME280;41637;52.364;9.910;2022-07-29T13:59:13;100832.77;;;39.82;17.64
55733;BME280;41637;52.364;9.910;2022-07-29T14:01:40;100826.18;;;40.33;17.79
55733;BME280;41637;52.364;9.910;2022-07-29T14:04:09;100824.64;;;40.77;16.92
55733;BME280;41637;52.364;9.910;2022-07-29T14:06:37;100820.51;;;41.15;16.40
55733;BME280;41637;52.364;9.910;2022-07-29T14:09:06;100823.62;;;41.72;15.76
55733;BME280;41637;52.364;9.910;2022-07-29T14:11:35;100819.56;;;42.25;15.39
55733;BME280;41637;52.364;9.910;2022-07-29T14:14:02;100810.64;;;42.37;15.13
55733;BME280;41637;52.364;9.910;2022-07-29T14:16:28;100818.44;;;42.02;15.62
55733;BME280;41637;52.364;9.910;2022-07-29T14:18:56;100820.27;;;42.11;15.27
55733;BME280;41637;52.364;9.910;2022-07-29T14:21:22;100815.17;;;42.52;14.92
55733;BME280;41637;52.364;9.910;2022-07-29T14:23:50;100814.75;;;42.98;14.39
55733;BME280;41637;52.364;9.910;2022-07-29T14:29:59;100816.31;;;43.61;13.67
55733;BME280;41637;52.364;9.910;2022-07-29T14:32:26;100815.34;;;43.56;13.81
55733;BME280;41637;52.364;9.910;2022-07-29T14:34:53;100809.68;;;43.90;13.54
55733;BME280;41637;52.364;9.910;2022-07-29T14:37:20;100812.55;;;43.97;13.53
55733;BME280;41637;52.364;9.910;2022-07-29T14:39:47;100811.70;;;44.34;13.27
55733;BME280;41637;52.364;9.910;2022-07-29T14:42:14;100804.67;;;44.73;12.87
55733;BME280;41637;52.364;9.910;2022-07-29T14:44:40;100808.09;;;45.36;12.72